Time;durP1;ratioP1;P1;durP2;ratioP2;P2;SDS_P1;SDS_P2;PMS_P1;PMS_P2;Temp;Humidity;BMP_temperature;BMP_pressure;BME280_temperature;BME280_humidity;BME280_pressure;Samples;Min_cycle;Max_cycle;Signal;HPM_P1;HPM_P2
2022/02/02 00:04:48;;;;;;;2.28;1.40;;;22.50;36.80;;;;;;6015753;28;85661;-65
2022/02/02 00:08:01;;;;;;;1.38;1.15;;;22.50;36.70;;;;;;6022849;28;82304;-65
2022/02/02 00:14:32;;;;;;;3.28;1.23;;;22.50;36.70;;;;;;6033243;28;80407;-65
2022/02/02 00:17:52;;;;;;;1.83;1.20;;;22.50;36.70;;;;;;6034415;28;81941;-64
2022/02/02 00:20:57;;;;;;;3.05;1.15;;;22.40;36.60;;;;;;6043400;28;81794;-65
2022/02/02 00:24:03;;;;;;;2.80;1.43;;;22.40;36.70;;;;;;6036117;28;80616;-65
2022/02/02 00:27:07;;;;;;;1.58;1.20;;;22.40;36.70;;;;;;6039807;28;80503;-65
2022/02/02 00:30:12;;;;;;;1.52;1.23;;;22.40;36.70;;;;;;6044985;28;81547;-66
2022/02/02 00:33:21;;;;;;;1.90;1.20;;;22.40;36.70;;;;;;6045142;28;80421;-64
2022/02/02 00:36:25;;;;;;;1.00;0.90;;;22.50;36.70;;;;;;6031866;28;80242;-65
2022/02/02 00:39:26;;;;;;;1.02;0.95;;;22.50;36.70;;;;;;6063748;28;82173;-66
2022/02/02 00:42:29;;;;;;;1.50;1.00;;;22.40;36.80;;;;;;6058452;28;80773;-65
2022/02/02 00:45:33;;;;;;;1.88;1.20;;;22.40;36.70;;;;;;6067193;28;81562;-66
2022/02/02 00:48:35;;;;;;;1.67;1.45;;;22.40;36.80;;;;;;6068976;28;80454;-66
2022/02/02 00:51:40;;;;;;;1.23;1.02;;;22.40;36.80;;;;;;6076846;28;81364;-65
2022/02/02 00:54:41;;;;;;;1.70;1.10;;;22.40;36.80;;;;;;6080403;28;80134;-65
2022/02/02 00:57:41;;;;;;;2.88;1.27;;;22.40;36.90;;;;;;6075199;28;80785;-65
2022/02/02 01:00:42;;;;;;;1.67;1.20;;;22.40;36.80;;;;;;6059196;28;82372;-65
2022/02/02 01:03:42;;;;;;;1.05;0.95;;;22.40;36.90;;;;;;6059805;28;80514;-65
2022/02/02 01:06:53;;;;;;;2.78;1.70;;;22.40;36.90;;;;;;6059091;28;82121;-66
2022/02/02 01:10:21;;;;;;;1.77;1.15;;;22.40;36.90;;;;;;6068925;28;80334;-67
2022/02/02 01:19:38;;;;;;;2.03;1.10;;;22.40;37.00;;;;;;6050836;28;80566;-65
2022/02/02 01:29:17;;;;;;;0.70;0.70;;;22.40;37.20;;;;;;6066312;28;81664;-66
2022/02/02 01:32:18;;;;;;;1.08;0.90;;;22.40;37.30;;;;;;6065252;28;80711;-63
2022/02/02 01:35:19;;;;;;;1.83;1.27;;;22.40;37.40;;;;;;6065312;28;80841;-66
2022/02/02 01:38:20;;;;;;;1.00;0.85;;;22.40;37.30;;;;;;6061934;28;80355;-65
2022/02/02 01:41:27;;;;;;;1.77;1.20;;;22.40;37.40;;;;;;6068146;28;80592;-64
2022/02/02 01:45:10;;;;;;;1.13;1.02;;;22.40;37.30;;;;;;6061640;28;81320;-67
2022/02/02 01:48:19;;;;;;;1.08;0.90;;;22.40;37.30;;;;;;6057082;28;80680;-64
2022/02/02 02:00:43;;;;;;;0.93;0.90;;;22.40;37.30;;;;;;6064801;28;80516;-64
2022/02/02 02:03:43;;;;;;;2.10;1.20;;;22.40;37.30;;;;;;6049188;28;80927;-64
2022/02/02 02:06:44;;;;;;;1.38;0.90;;;22.40;37.40;;;;;;6062628;28;81878;-64
2022/02/02 02:09:44;;;;;;;2.25;1.20;;;22.40;37.40;;;;;;6067366;28;80352;-64
2022/02/02 02:12:56;;;;;;;1.33;0.82;;;22.40;37.30;;;;;;6063367;28;80639;-64
2022/02/02 02:15:57;;;;;;;1.50;1.00;;;22.40;37.30;;;;;;6049405;28;82244;-66
2022/02/02 02:18:58;;;;;;;1.45;0.90;;;22.30;37.30;;;;;;6051051;28;80428;-63
2022/02/02 02:21:59;;;;;;;2.50;0.90;;;22.40;37.40;;;;;;6059481;28;80428;-64
2022/02/02 02:25:00;;;;;;;0.98;0.88;;;22.30;37.40;;;;;;6070923;28;80373;-64
2022/02/02 02:28:11;;;;;;;1.85;1.15;;;22.40;37.40;;;;;;6075532;28;80592;-64
2022/02/02 02:32:08;;;;;;;1.00;0.90;;;22.40;37.40;;;;;;6074130;28;81008;-64
2022/02/02 03:30:51;;;;;;;2.80;1.10;;;22.30;37.90;;;;;;6054695;28;80430;-64
2022/02/02 04:00:20;;;;;;;2.50;1.30;;;22.30;37.90;;;;;;6064191;28;80605;-65
2022/02/02 04:06:24;;;;;;;1.23;0.90;;;22.30;37.90;;;;;;6063901;28;81246;-65
2022/02/02 04:09:25;;;;;;;1.25;0.82;;;22.30;38.50;;;;;;6063621;28;80550;-64
2022/02/02 05:08:00;;;;;;;2.13;1.40;;;22.80;37.30;;;;;;6059594;28;85137;-66
2022/02/02 05:25:09;;;;;;;1.85;1.25;;;22.90;37.30;;;;;;6061521;28;80604;-66
2022/02/02 05:50:20;;;;;;;1.38;0.93;;;23.00;41.60;;;;;;6059108;28;85166;-67
2022/02/02 05:53:20;;;;;;;0.70;0.70;;;23.00;42.20;;;;;;6056296;28;80965;-69
2022/02/02 05:56:20;;;;;;;1.70;0.82;;;23.00;42.80;;;;;;6055131;28;81684;-67
2022/02/02 05:59:21;;;;;;;2.33;1.23;;;23.00;43.50;;;;;;6063651;28;81537;-69
2022/02/02 06:02:21;;;;;;;1.08;0.82;;;23.00;43.90;;;;;;6039912;28;81393;-70
2022/02/02 06:05:21;;;;;;;1.40;0.77;;;23.00;44.20;;;;;;6050764;28;80306;-67
2022/02/02 06:08:22;;;;;;;2.17;1.00;;;23.00;44.70;;;;;;6081843;28;80552;-73
2022/02/02 06:11:23;;;;;;;0.80;0.80;;;23.10;45.20;;;;;;6067415;28;81847;-68
2022/02/02 06:14:23;;;;;;;1.60;0.90;;;23.10;45.40;;;;;;6066141;28;80437;-66
2022/02/02 06:17:24;;;;;;;1.63;0.90;;;23.00;45.50;;;;;;6064033;28;80486;-64
2022/02/02 06:20:24;;;;;;;1.70;1.00;;;23.10;45.90;;;;;;6066254;28;80463;-65
2022/02/02 06:23:25;;;;;;;1.98;0.90;;;23.00;46.00;;;;;;6054013;28;84396;-66
2022/02/02 06:26:25;;;;;;;1.73;0.98;;;23.00;46.50;;;;;;6053503;28;80476;-67
2022/02/02 06:29:26;;;;;;;2.55;1.17;;;23.00;46.90;;;;;;6052762;28;80610;-65
2022/02/02 06:32:28;;;;;;;0.70;0.70;;;23.00;47.50;;;;;;6064527;28;80353;-65
2022/02/02 06:35:28;;;;;;;3.72;1.65;;;23.00;47.60;;;;;;6064657;28;81549;-66
2022/02/02 06:38:29;;;;;;;3.33;1.42;;;23.00;48.00;;;;;;6051254;28;81287;-68
2022/02/02 06:41:30;;;;;;;1.73;1.10;;;23.00;48.00;;;;;;6060693;28;80299;-64
2022/02/02 06:44:30;;;;;;;4.38;1.58;;;23.10;47.80;;;;;;6064115;28;80935;-64
2022/02/02 06:47:31;;;;;;;7.32;1.20;;;23.20;47.30;;;;;;6064027;28;80578;-66
2022/02/02 06:50:36;;;;;;;1.40;1.00;;;23.20;47.00;;;;;;6063786;28;80927;-66
2022/02/02 06:53:40;;;;;;;2.17;1.25;;;23.20;46.80;;;;;;6063273;28;83489;-66
2022/02/02 06:56:47;;;;;;;3.80;1.40;;;23.30;46.60;;;;;;6068147;28;80953;-67
2022/02/02 07:06:20;;;;;;;2.70;1.27;;;23.40;46.10;;;;;;6061840;28;82881;-65
2022/02/02 07:12:43;;;;;;;2.25;1.13;;;23.40;45.80;;;;;;6054372;28;80426;-66
2022/02/02 07:19:37;;;;;;;2.40;1.50;;;23.40;45.60;;;;;;6053416;28;80797;-66
2022/02/02 07:22:42;;;;;;;3.80;1.25;;;23.40;45.60;;;;;;6050026;28;80715;-67
2022/02/02 07:31:57;;;;;;;2.47;1.50;;;23.40;45.50;;;;;;6054089;28;80497;-65
2022/02/02 07:35:07;;;;;;;4.15;1.65;;;23.50;45.50;;;;;;6059282;28;80443;-68
2022/02/02 07:38:10;;;;;;;2.50;1.52;;;23.50;45.50;;;;;;6055972;28;80606;-65
2022/02/02 07:41:13;;;;;;;2.20;1.42;;;23.50;45.50;;;;;;6061872;28;80381;-66
2022/02/02 07:44:17;;;;;;;1.85;1.42;;;23.50;45.40;;;;;;6061145;28;80393;-65
2022/02/02 07:47:20;;;;;;;6.03;2.30;;;23.50;45.30;;;;;;6062442;28;80902;-66
2022/02/02 07:50:22;;;;;;;6.85;2.30;;;22.80;42.00;;;;;;6053424;28;81738;-64
2022/02/02 07:53:26;;;;;;;5.43;2.35;;;22.00;41.60;;;;;;6061319;28;81572;-66
2022/02/02 07:56:33;;;;;;;3.75;2.10;;;21.80;40.80;;;;;;6062738;28;81001;-65
2022/02/02 07:59:47;;;;;;;3.22;2.00;;;21.80;40.90;;;;;;6062864;28;80433;-66
2022/02/02 08:03:04;;;;;;;4.53;1.70;;;22.00;41.90;;;;;;6061570;28;80631;-66
2022/02/02 08:06:06;;;;;;;3.55;2.30;;;22.20;41.80;;;;;;6060978;28;81116;-68
2022/02/02 08:09:09;;;;;;;7.72;2.22;;;22.40;41.90;;;;;;6050305;28;81263;-67
2022/02/02 08:12:16;;;;;;;3.75;2.30;;;22.40;42.00;;;;;;6057256;28;80688;-67
2022/02/02 08:15:18;;;;;;;4.68;2.25;;;22.50;41.70;;;;;;6063441;28;80559;-67
2022/02/02 08:18:18;;;;;;;4.70;2.65;;;22.60;42.30;;;;;;6064210;28;81078;-66
2022/02/02 08:21:19;;;;;;;6.40;2.78;;;22.60;41.80;;;;;;6064396;28;80248;-66
2022/02/02 08:24:19;;;;;;;4.53;2.30;;;22.70;42.10;;;;;;6064626;28;81094;-66
2022/02/02 08:27:20;;;;;;;3.53;1.98;;;22.70;42.70;;;;;;6055525;28;80287;-66
2022/02/02 08:30:23;;;;;;;3.58;2.03;;;22.70;42.90;;;;;;6053017;28;80045;-66
2022/02/02 08:33:33;;;;;;;3.20;2.10;;;22.70;43.00;;;;;;6057316;28;80276;-66
2022/02/02 08:36:33;;;;;;;3.60;2.03;;;22.70;43.40;;;;;;6038739;28;83840;-68
2022/02/02 08:42:38;;;;;;;3.65;2.33;;;22.80;43.90;;;;;;6056428;28;81163;-67
2022/02/02 08:45:42;;;;;;;4.13;2.25;;;22.80;44.20;;;;;;6040725;28;81606;-67
2022/02/02 08:48:44;;;;;;;4.65;1.92;;;22.80;44.10;;;;;;6065062;28;80558;-67
2022/02/02 08:51:47;;;;;;;3.80;2.10;;;22.80;44.00;;;;;;6057182;28;80645;-67
2022/02/02 08:54:55;;;;;;;10.55;2.47;;;22.80;44.10;;;;;;6059589;28;80685;-68
2022/02/02 08:58:19;;;;;;;5.00;2.42;;;22.80;43.90;;;;;;6064545;28;81736;-68
2022/02/02 09:01:26;;;;;;;6.38;2.33;;;22.90;44.20;;;;;;6061068;28;80536;-67
2022/02/02 09:07:46;;;;;;;7.55;2.38;;;22.90;44.50;;;;;;6062597;28;85293;-68
2022/02/02 09:24:06;;;;;;;3.17;1.77;;;23.00;45.10;;;;;;6065378;28;81569;-72
2022/02/02 09:36:43;;;;;;;5.40;2.20;;;23.00;45.10;;;;;;6059264;28;80494;-68
2022/02/02 09:39:51;;;;;;;3.53;2.22;;;23.00;45.20;;;;;;6058314;28;80510;-67
2022/02/02 09:42:56;;;;;;;4.53;2.17;;;22.90;45.10;;;;;;6064918;28;80417;-67
2022/02/02 09:46:02;;;;;;;3.67;2.38;;;22.90;45.00;;;;;;6066442;28;80361;-67
2022/02/02 09:49:06;;;;;;;3.78;2.20;;;22.90;45.20;;;;;;6064449;28;80935;-71
2022/02/02 09:52:12;;;;;;;3.30;1.95;;;22.80;45.30;;;;;;6060262;28;80834;-73
2022/02/02 09:55:20;;;;;;;7.18;2.40;;;22.80;45.30;;;;;;6054307;28;81395;-75
2022/02/02 10:04:45;;;;;;;6.38;2.67;;;22.90;45.40;;;;;;6066290;28;80640;-69
2022/02/02 10:10:55;;;;;;;5.22;2.75;;;22.90;45.30;;;;;;6054346;28;80606;-71
2022/02/02 10:14:14;;;;;;;8.82;3.75;;;22.80;45.20;;;;;;6047091;28;80499;-70
2022/02/02 10:17:14;;;;;;;162.45;79.72;;;22.80;45.20;;;;;;6051412;28;80926;-69
2022/02/02 10:20:15;;;;;;;215.57;105.78;;;22.80;45.90;;;;;;6058748;28;82885;-70
2022/02/02 10:23:16;;;;;;;254.70;123.55;;;22.70;46.30;;;;;;6050781;28;85503;-69
2022/02/02 10:26:17;;;;;;;258.48;118.15;;;22.70;46.90;;;;;;6053520;28;86415;-70
2022/02/02 10:29:17;;;;;;;203.98;97.63;;;22.70;46.40;;;;;;6058348;28;85812;-70
2022/02/02 10:32:18;;;;;;;195.02;92.93;;;22.80;45.90;;;;;;6067508;28;85293;-70
2022/02/02 10:35:18;;;;;;;143.30;66.65;;;22.80;46.60;;;;;;6061706;28;84179;-70
2022/02/02 10:38:21;;;;;;;126.38;58.47;;;22.80;46.30;;;;;;6064482;28;83315;-70
2022/02/02 10:41:32;;;;;;;108.13;50.58;;;22.80;45.70;;;;;;6056153;28;83709;-73
2022/02/02 10:44:35;;;;;;;95.00;47.17;;;22.80;47.20;;;;;;6044599;28;83640;-74
2022/02/02 10:47:38;;;;;;;85.70;40.35;;;22.80;46.10;;;;;;6048325;28;82901;-76
2022/02/02 10:50:49;;;;;;;76.07;36.90;;;22.80;46.80;;;;;;6053535;28;84268;-78
2022/02/02 10:54:05;;;;;;;64.07;30.55;;;22.80;46.50;;;;;;6060648;28;83419;-74
2022/02/02 10:57:14;;;;;;;58.25;28.50;;;22.80;46.60;;;;;;6054459;28;83466;-73
2022/02/02 11:00:30;;;;;;;57.45;28.15;;;22.80;46.20;;;;;;6057769;28;83542;-71
2022/02/02 11:06:50;;;;;;;43.80;22.00;;;22.90;46.30;;;;;;6053616;28;84178;-65
2022/02/02 11:09:51;;;;;;;44.05;20.98;;;23.00;46.10;;;;;;6054731;28;84718;-68
2022/02/02 11:12:52;;;;;;;33.92;17.50;;;23.10;46.20;;;;;;6054903;28;83758;-67
2022/02/02 11:15:52;;;;;;;35.10;16.60;;;23.20;45.80;;;;;;6061650;28;83251;-68
2022/02/02 11:18:52;;;;;;;30.45;16.35;;;23.10;45.60;;;;;;6056896;28;84382;-67
2022/02/02 11:21:53;;;;;;;29.52;14.02;;;23.20;45.60;;;;;;6054738;28;83015;-67
2022/02/02 11:24:53;;;;;;;29.30;13.73;;;23.30;45.40;;;;;;6054817;28;83446;-69
2022/02/02 11:27:54;;;;;;;27.90;14.70;;;23.40;45.20;;;;;;6056163;28;83554;-68
2022/02/02 11:30:54;;;;;;;27.13;12.25;;;23.40;45.10;;;;;;6054667;28;83124;-67
2022/02/02 11:33:57;;;;;;;20.55;11.60;;;23.40;45.20;;;;;;6056434;28;82945;-67
2022/02/02 11:36:57;;;;;;;22.02;10.93;;;23.40;45.10;;;;;;6052220;28;86301;-66
2022/02/02 11:40:03;;;;;;;20.02;10.55;;;23.40;44.90;;;;;;6055511;28;83212;-67
2022/02/02 11:46:17;;;;;;;19.42;9.05;;;23.40;44.50;;;;;;6056978;28;83476;-67
2022/02/02 11:49:20;;;;;;;18.30;9.25;;;23.40;44.50;;;;;;6059599;28;84260;-67
2022/02/02 11:52:20;;;;;;;16.85;8.38;;;23.30;44.60;;;;;;6041857;28;80810;-67
2022/02/02 11:55:21;;;;;;;17.27;8.57;;;23.30;44.40;;;;;;6058821;28;80650;-68
2022/02/02 11:58:24;;;;;;;18.60;8.63;;;23.30;44.40;;;;;;6064583;28;80828;-66
2022/02/02 12:01:28;;;;;;;18.98;8.73;;;23.30;44.70;;;;;;6045698;28;80568;-67
2022/02/02 12:04:43;;;;;;;15.30;7.68;;;23.30;44.60;;;;;;6059566;28;80556;-67
2022/02/02 12:07:45;;;;;;;15.77;6.82;;;23.30;44.60;;;;;;6059927;28;85902;-65
2022/02/02 12:11:18;;;;;;;12.77;6.60;;;23.30;44.60;;;;;;6057099;28;80547;-67
2022/02/02 12:50:27;;;;;;;12.55;5.00;;;23.20;45.60;;;;;;6058980;28;81554;-68
2022/02/02 12:57:00;;;;;;;12.38;5.63;;;23.30;46.70;;;;;;6052369;28;81708;-66
2022/02/02 13:00:08;;;;;;;16.10;6.05;;;23.30;47.20;;;;;;6054222;28;81455;-69
2022/02/02 13:03:08;;;;;;;9.40;5.20;;;23.30;47.90;;;;;;6053605;28;80730;-69
2022/02/02 13:06:09;;;;;;;23.38;6.03;;;23.30;48.20;;;;;;6062106;28;80697;-68
2022/02/02 13:09:09;;;;;;;10.63;5.00;;;23.30;48.10;;;;;;6054561;28;81596;-68
2022/02/02 13:12:10;;;;;;;9.43;4.72;;;23.30;48.10;;;;;;6057795;28;81638;-71
2022/02/02 13:15:18;;;;;;;10.50;4.50;;;23.30;48.40;;;;;;6059070;28;80985;-69
2022/02/02 13:21:32;;;;;;;7.90;3.80;;;23.20;48.80;;;;;;6055405;28;80656;-70
2022/02/02 13:24:33;;;;;;;8.27;4.25;;;23.20;48.80;;;;;;6056209;28;81492;-70
2022/02/02 13:27:35;;;;;;;9.10;3.47;;;23.30;48.80;;;;;;6055730;28;83374;-69
2022/02/02 13:30:41;;;;;;;8.93;3.90;;;23.20;48.60;;;;;;6057160;28;81287;-70
2022/02/02 13:33:43;;;;;;;15.63;4.32;;;23.20;48.70;;;;;;6056927;28;80834;-70
2022/02/02 13:43:11;;;;;;;9.85;3.78;;;23.30;48.40;;;;;;6053541;28;81972;-69
2022/02/02 13:46:28;;;;;;;8.77;3.65;;;23.30;48.50;;;;;;6066106;28;80161;-68
2022/02/02 13:49:57;;;;;;;5.35;3.15;;;23.30;48.40;;;;;;6063596;28;80602;-68
2022/02/02 13:53:24;;;;;;;9.60;3.10;;;23.30;48.30;;;;;;6056579;28;84790;-68
2022/02/02 14:06:20;;;;;;;5.90;3.28;;;23.20;48.30;;;;;;6062598;28;80912;-68
2022/02/02 14:09:37;;;;;;;5.82;2.78;;;23.30;48.60;;;;;;6056223;28;82078;-68
2022/02/02 14:32:29;;;;;;;8.07;2.50;;;23.20;47.80;;;;;;6055692;28;80414;-69
2022/02/02 14:35:30;;;;;;;7.68;3.15;;;23.10;47.80;;;;;;6051794;28;80499;-68
2022/02/02 14:38:43;;;;;;;6.07;3.08;;;23.10;47.60;;;;;;6047174;28;83137;-68
2022/02/02 14:44:45;;;;;;;6.80;3.28;;;23.10;47.20;;;;;;6058187;28;82291;-69
2022/02/02 14:47:49;;;;;;;5.25;2.50;;;23.00;47.20;;;;;;6057455;28;81093;-66
2022/02/02 15:33:22;;;;;;;3.53;1.77;;;23.00;47.60;;;;;;6050987;28;81247;-73
2022/02/02 15:39:47;;;;;;;8.18;2.35;;;23.00;48.10;;;;;;6051471;28;81582;-73
2022/02/02 16:03:05;;;;;;;121.93;58.15;;;23.20;49.00;;;;;;6048333;28;84954;-72
2022/02/02 16:06:19;;;;;;;103.00;50.35;;;23.20;48.70;;;;;;6048513;28;85921;-74
2022/02/02 16:12:26;;;;;;;77.88;37.83;;;23.30;48.30;;;;;;6052511;28;83147;-71
2022/02/02 16:15:30;;;;;;;66.40;33.90;;;23.40;48.20;;;;;;6054611;28;83207;-68
2022/02/02 16:18:48;;;;;;;60.33;30.77;;;23.40;48.10;;;;;;6055584;28;83896;-70
2022/02/02 16:31:58;;;;;;;44.35;19.30;;;23.50;48.00;;;;;;6047759;28;88040;-70
2022/02/02 16:38:20;;;;;;;33.47;16.75;;;23.60;47.90;;;;;;6052123;28;83131;-71
2022/02/02 16:44:40;;;;;;;23.45;13.73;;;23.60;47.70;;;;;;6049593;28;83353;-72
2022/02/02 16:47:41;;;;;;;21.85;11.73;;;23.60;47.60;;;;;;6049886;28;86194;-71
2022/02/02 16:50:43;;;;;;;20.65;11.48;;;23.60;47.10;;;;;;6053403;28;83616;-70
2022/02/02 16:53:48;;;;;;;21.05;11.20;;;23.50;47.10;;;;;;6058663;28;83555;-73
2022/02/02 17:33:05;;;;;;;9.55;4.82;;;23.40;47.70;;;;;;6056716;28;81945;-69
2022/02/02 17:39:13;;;;;;;8.32;5.28;;;23.30;47.50;;;;;;6056506;28;80884;-71
2022/02/02 17:45:36;;;;;;;5.72;3.83;;;23.40;46.90;;;;;;6064523;28;81752;-70
2022/02/02 18:00:03;;;;;;;;;;;23.30;44.50;;;;;;6031988;28;83597;-67
2022/02/02 18:18:50;;;;;;;8.00;4.95;;;23.20;45.80;;;;;;6064122;28;80612;-67
2022/02/02 18:21:52;;;;;;;14.43;3.50;;;23.10;46.20;;;;;;6041332;28;83195;-67
2022/02/02 18:25:09;;;;;;;8.43;4.03;;;23.20;46.30;;;;;;6056637;28;80526;-69
2022/02/02 18:34:41;;;;;;;8.02;3.92;;;23.20;46.50;;;;;;6053868;28;81823;-66
2022/02/02 19:00:27;;;;;;;8.52;3.72;;;23.30;46.30;;;;;;6047462;28;83239;-70
2022/02/02 19:56:40;;;;;;;5.75;3.65;;;23.40;43.10;;;;;;6063463;28;80946;-70
2022/02/02 20:07:00;;;;;;;10.02;3.88;;;23.40;42.40;;;;;;6057843;28;81517;-72
2022/02/02 20:12:47;;;;;;;6.75;3.90;;;23.50;42.20;;;;;;6059530;28;80823;-72
2022/02/02 20:15:47;;;;;;;7.15;4.22;;;23.50;42.00;;;;;;6060808;28;81025;-71
2022/02/02 20:18:51;;;;;;;6.22;3.72;;;23.50;41.80;;;;;;6061003;28;80531;-71
2022/02/02 20:21:55;;;;;;;7.05;3.65;;;23.50;41.70;;;;;;6061925;28;80563;-70
2022/02/02 20:24:58;;;;;;;5.18;3.38;;;23.50;41.50;;;;;;6063259;28;82376;-71
2022/02/02 20:28:06;;;;;;;4.05;3.25;;;23.60;41.40;;;;;;6062176;28;80605;-73
2022/02/02 20:31:07;;;;;;;5.10;3.00;;;23.50;41.40;;;;;;6054165;28;82060;-76
2022/02/02 20:34:07;;;;;;;9.73;3.78;;;23.50;41.40;;;;;;6049362;28;81566;-71
2022/02/02 20:37:10;;;;;;;5.50;3.70;;;23.60;41.40;;;;;;6062397;28;81227;-74
2022/02/02 20:40:12;;;;;;;5.22;3.00;;;23.60;41.50;;;;;;6062339;28;80501;-72
2022/02/02 20:43:25;;;;;;;5.82;3.83;;;23.60;41.50;;;;;;6059458;28;81042;-71
2022/02/02 20:47:01;;;;;;;7.13;3.10;;;23.60;41.50;;;;;;6063669;28;80498;-70
2022/02/02 21:16:15;;;;;;;6.13;4.15;;;23.40;38.60;;;;;;6049536;28;80444;-68
2022/02/02 21:19:27;;;;;;;7.43;4.32;;;23.30;38.10;;;;;;6065156;28;80599;-68
2022/02/02 21:22:31;;;;;;;6.82;4.43;;;23.30;37.70;;;;;;6057216;28;80714;-69
2022/02/02 21:28:42;;;;;;;7.43;4.15;;;23.10;36.90;;;;;;6051884;28;85588;-69
2022/02/02 21:31:42;;;;;;;7.60;4.28;;;23.10;36.90;;;;;;6059345;28;80337;-70
2022/02/02 21:34:43;;;;;;;6.80;4.22;;;23.20;37.10;;;;;;6062143;28;80705;-69
2022/02/02 21:37:46;;;;;;;8.38;4.72;;;23.20;37.20;;;;;;6065372;28;80719;-69
2022/02/02 21:40:51;;;;;;;6.97;4.15;;;23.20;37.20;;;;;;6067132;28;81209;-69
2022/02/02 21:43:52;;;;;;;6.53;3.80;;;23.20;37.70;;;;;;6064367;28;81424;-69
2022/02/02 21:46:53;;;;;;;5.28;3.35;;;23.10;37.70;;;;;;6036024;28;80501;-69
2022/02/02 21:49:57;;;;;;;6.93;3.60;;;23.10;37.90;;;;;;6050512;28;81724;-68
2022/02/02 21:52:57;;;;;;;8.05;4.45;;;23.10;37.90;;;;;;6064329;28;81572;-71
2022/02/02 21:55:58;;;;;;;6.30;3.92;;;23.10;38.00;;;;;;6060872;28;81174;-69
2022/02/02 21:58:58;;;;;;;6.32;3.97;;;23.10;38.10;;;;;;6057217;28;81239;-69
2022/02/02 22:01:59;;;;;;;7.63;4.88;;;23.10;38.20;;;;;;6056133;28;80871;-69
2022/02/02 22:04:59;;;;;;;9.27;4.55;;;23.10;38.20;;;;;;6062339;28;81248;-69
2022/02/02 22:08:00;;;;;;;7.90;4.45;;;23.10;38.30;;;;;;6064704;28;80857;-69
2022/02/02 22:11:01;;;;;;;6.45;4.10;;;23.20;38.70;;;;;;6060852;28;80910;-69
2022/02/02 22:14:06;;;;;;;9.00;4.55;;;23.10;38.90;;;;;;6050962;28;80991;-69
2022/02/02 22:17:07;;;;;;;9.30;5.40;;;23.10;39.20;;;;;;6055636;28;80108;-68
2022/02/02 22:20:10;;;;;;;7.13;4.60;;;23.10;38.90;;;;;;6046393;28;81865;-69
2022/02/02 22:23:11;;;;;;;8.25;4.30;;;23.10;39.10;;;;;;6054618;28;80894;-69
2022/02/02 22:26:12;;;;;;;8.05;4.65;;;23.10;39.00;;;;;;6051015;28;81491;-69
2022/02/02 22:29:13;;;;;;;7.43;4.55;;;23.10;39.20;;;;;;6046536;28;80201;-70
2022/02/02 22:32:13;;;;;;;7.28;4.25;;;23.10;39.20;;;;;;6063743;28;80487;-70
2022/02/02 22:35:15;;;;;;;7.68;4.63;;;23.10;39.20;;;;;;6057090;28;80161;-69
2022/02/02 22:38:15;;;;;;;9.07;4.63;;;23.10;39.30;;;;;;6060189;28;81726;-69
2022/02/02 22:41:16;;;;;;;6.82;4.60;;;23.10;39.30;;;;;;6036286;28;80872;-70
2022/02/02 22:44:17;;;;;;;8.25;5.13;;;23.10;39.00;;;;;;6050559;28;80990;-66
2022/02/02 22:47:18;;;;;;;11.23;6.40;;;23.10;39.10;;;;;;6049242;28;80856;-71
2022/02/02 22:50:20;;;;;;;9.77;5.05;;;23.10;39.30;;;;;;6054090;28;81682;-73
2022/02/02 22:53:24;;;;;;;9.57;4.95;;;23.10;39.60;;;;;;6059027;28;81853;-73
2022/02/02 22:56:24;;;;;;;10.07;5.45;;;23.10;39.60;;;;;;6063244;28;81439;-73
2022/02/02 22:59:25;;;;;;;9.55;5.90;;;23.10;39.90;;;;;;6064214;28;80492;-73
2022/02/02 23:05:46;;;;;;;7.78;4.78;;;23.00;39.80;;;;;;6061059;28;80426;-73
2022/02/02 23:08:47;;;;;;;10.38;5.38;;;23.00;39.80;;;;;;6063924;28;81271;-72
2022/02/02 23:11:47;;;;;;;9.55;4.78;;;23.00;39.90;;;;;;6044657;28;83266;-74
2022/02/02 23:14:48;;;;;;;9.38;5.50;;;22.90;39.90;;;;;;6061166;28;80661;-73
2022/02/02 23:17:49;;;;;;;10.27;5.70;;;22.90;40.00;;;;;;6063525;28;80403;-73
2022/02/02 23:20:53;;;;;;;8.95;5.20;;;22.90;40.10;;;;;;6049596;28;80518;-73
2022/02/02 23:23:54;;;;;;;6.90;4.85;;;22.90;40.10;;;;;;6061012;28;80169;-73
2022/02/02 23:26:55;;;;;;;9.38;4.88;;;22.90;40.20;;;;;;6066280;28;80827;-73
2022/02/02 23:29:56;;;;;;;8.48;4.90;;;22.90;40.20;;;;;;6047741;28;80595;-74
2022/02/02 23:33:01;;;;;;;10.55;5.00;;;22.90;40.30;;;;;;6055728;28;82010;-73
2022/02/02 23:36:01;;;;;;;8.13;4.93;;;22.90;40.30;;;;;;6064059;28;80784;-73
2022/02/02 23:39:02;;;;;;;8.77;5.25;;;22.90;40.20;;;;;;6066612;28;81563;-74
2022/02/02 23:42:19;;;;;;;9.00;5.43;;;22.90;40.30;;;;;;6062556;28;81704;-74
2022/02/02 23:45:23;;;;;;;7.32;4.63;;;22.90;40.30;;;;;;6056799;28;81795;-73
2022/02/02 23:48:23;;;;;;;9.60;4.97;;;22.80;40.30;;;;;;6039415;28;81618;-73
2022/02/02 23:51:27;;;;;;;8.05;4.97;;;22.80;40.40;;;;;;6051808;28;80605;-73
2022/02/02 23:54:28;;;;;;;11.48;5.93;;;22.80;40.30;;;;;;6056594;28;81617;-73
